sensor_id;sensor_type;location;lat;lon;timestamp;pressure;altitude;pressure_sealevel;temperature;humidity
41947;BME280;27638;42.184;24.848;2023-02-15T00:01:24;101111.63;;;5.73;57.32
41947;BME280;27638;42.184;24.848;2023-02-15T00:03:50;101120.66;;;5.69;57.11
41947;BME280;27638;42.184;24.848;2023-02-15T00:06:16;101129.19;;;5.72;57.42
41947;BME280;27638;42.184;24.848;2023-02-15T00:08:42;101122.78;;;5.76;56.75
41947;BME280;27638;42.184;24.848;2023-02-15T00:11:15;101117.16;;;5.68;57.00
41947;BME280;27638;42.184;24.848;2023-02-15T00:13:41;101125.69;;;5.72;56.96
41947;BME280;27638;42.184;24.848;2023-02-15T00:16:10;101125.91;;;5.69;57.43
41947;BME280;27638;42.184;24.848;2023-02-15T00:18:36;101126.66;;;5.71;57.35
41947;BME280;27638;42.184;24.848;2023-02-15T00:21:07;101122.34;;;5.70;57.17
41947;BME280;27638;42.184;24.848;2023-02-15T00:23:33;101129.94;;;5.60;57.47
41947;BME280;27638;42.184;24.848;2023-02-15T00:26:09;101137.00;;;5.60;57.88
41947;BME280;27638;42.184;24.848;2023-02-15T00:28:35;101122.53;;;5.67;57.45
41947;BME280;27638;42.184;24.848;2023-02-15T00:31:08;101121.78;;;5.65;57.82
41947;BME280;27638;42.184;24.848;2023-02-15T00:33:35;101127.22;;;5.62;58.02
41947;BME280;27638;42.184;24.848;2023-02-15T00:36:01;101128.47;;;5.56;57.93
41947;BME280;27638;42.184;24.848;2023-02-15T00:38:28;101125.66;;;5.45;58.93
41947;BME280;27638;42.184;24.848;2023-02-15T00:40:55;101131.66;;;5.47;58.69
41947;BME280;27638;42.184;24.848;2023-02-15T00:43:21;101135.50;;;5.41;58.94
41947;BME280;27638;42.184;24.848;2023-02-15T00:45:47;101133.81;;;5.40;58.77
41947;BME280;27638;42.184;24.848;2023-02-15T00:48:12;101131.56;;;5.34;59.66
41947;BME280;27638;42.184;24.848;2023-02-15T00:50:37;101132.31;;;5.36;59.47
41947;BME280;27638;42.184;24.848;2023-02-15T00:53:03;101126.13;;;5.37;59.91
41947;BME280;27638;42.184;24.848;2023-02-15T00:55:29;101128.75;;;5.37;59.62
41947;BME280;27638;42.184;24.848;2023-02-15T00:57:54;101122.56;;;5.38;59.92
41947;BME280;27638;42.184;24.848;2023-02-15T01:00:19;101124.06;;;5.42;59.59
41947;BME280;27638;42.184;24.848;2023-02-15T01:02:45;101121.44;;;5.42;60.02
41947;BME280;27638;42.184;24.848;2023-02-15T01:05:10;101127.53;;;5.43;60.12
41947;BME280;27638;42.184;24.848;2023-02-15T01:07:36;101125.94;;;5.40;59.60
41947;BME280;27638;42.184;24.848;2023-02-15T01:10:01;101115.53;;;5.39;60.02
41947;BME280;27638;42.184;24.848;2023-02-15T01:12:26;101120.22;;;5.34;59.86
41947;BME280;27638;42.184;24.848;2023-02-15T01:14:52;101112.81;;;5.40;59.86
41947;BME280;27638;42.184;24.848;2023-02-15T01:17:17;101112.72;;;5.42;59.23
41947;BME280;27638;42.184;24.848;2023-02-15T01:19:43;101102.50;;;5.37;59.64
41947;BME280;27638;42.184;24.848;2023-02-15T01:22:08;101100.41;;;5.42;59.35
41947;BME280;27638;42.184;24.848;2023-02-15T01:24:34;101100.41;;;5.42;59.05
41947;BME280;27638;42.184;24.848;2023-02-15T01:26:59;101100.31;;;5.44;59.33
41947;BME280;27638;42.184;24.848;2023-02-15T01:29:25;101096.09;;;5.41;59.92
41947;BME280;27638;42.184;24.848;2023-02-15T01:31:50;101101.47;;;5.40;59.34
41947;BME280;27638;42.184;24.848;2023-02-15T01:34:15;101099.03;;;5.37;59.90
41947;BME280;27638;42.184;24.848;2023-02-15T01:36:41;101106.81;;;5.38;60.18
41947;BME280;27638;42.184;24.848;2023-02-15T01:39:06;101100.72;;;5.38;59.95
41947;BME280;27638;42.184;24.848;2023-02-15T01:41:33;101098.47;;;5.32;59.90
41947;BME280;27638;42.184;24.848;2023-02-15T01:44:00;101098.53;;;5.16;60.64
41947;BME280;27638;42.184;24.848;2023-02-15T01:46:38;101102.09;;;5.15;60.94
41947;BME280;27638;42.184;24.848;2023-02-15T01:49:12;101109.53;;;5.23;60.58
41947;BME280;27638;42.184;24.848;2023-02-15T01:51:40;101120.59;;;5.28;60.45
41947;BME280;27638;42.184;24.848;2023-02-15T01:54:40;101113.66;;;5.27;60.70
41947;BME280;27638;42.184;24.848;2023-02-15T01:57:10;101120.19;;;5.20;60.88
41947;BME280;27638;42.184;24.848;2023-02-15T01:59:38;101127.25;;;5.19;60.69
41947;BME280;27638;42.184;24.848;2023-02-15T02:02:07;101135.81;;;5.23;60.76
41947;BME280;27638;42.184;24.848;2023-02-15T02:07:04;101143.06;;;5.03;60.96
41947;BME280;27638;42.184;24.848;2023-02-15T02:09:32;101139.16;;;5.10;61.28
41947;BME280;27638;42.184;24.848;2023-02-15T02:11:57;101141.84;;;4.95;60.27
41947;BME280;27638;42.184;24.848;2023-02-15T02:14:24;101141.28;;;4.90;59.83
41947;BME280;27638;42.184;24.848;2023-02-15T02:17:15;101145.03;;;4.86;60.47
41947;BME280;27638;42.184;24.848;2023-02-15T02:23:12;101153.00;;;4.84;60.52
41947;BME280;27638;42.184;24.848;2023-02-15T02:28:37;101149.75;;;4.35;62.03
41947;BME280;27638;42.184;24.848;2023-02-15T02:44:53;101166.44;;;3.22;65.24
41947;BME280;27638;42.184;24.848;2023-02-15T02:47:43;101161.91;;;3.08;65.51
41947;BME280;27638;42.184;24.848;2023-02-15T02:50:27;101162.09;;;3.38;64.61
41947;BME280;27638;42.184;24.848;2023-02-15T02:52:55;101162.78;;;3.42;64.43
41947;BME280;27638;42.184;24.848;2023-02-15T02:55:38;101160.31;;;3.39;64.83
41947;BME280;27638;42.184;24.848;2023-02-15T02:58:21;101165.69;;;3.03;66.02
41947;BME280;27638;42.184;24.848;2023-02-15T03:05:55;101168.66;;;3.30;65.21
41947;BME280;27638;42.184;24.848;2023-02-15T03:08:26;101180.06;;;3.11;65.37
41947;BME280;27638;42.184;24.848;2023-02-15T03:10:55;101173.06;;;3.12;65.42
41947;BME280;27638;42.184;24.848;2023-02-15T03:13:22;101177.00;;;3.20;65.16
41947;BME280;27638;42.184;24.848;2023-02-15T03:15:49;101181.50;;;3.34;64.77
41947;BME280;27638;42.184;24.848;2023-02-15T03:18:39;101182.47;;;2.81;66.67
41947;BME280;27638;42.184;24.848;2023-02-15T03:21:07;101178.56;;;2.90;67.00
41947;BME280;27638;42.184;24.848;2023-02-15T03:23:34;101176.25;;;2.84;67.21
41947;BME280;27638;42.184;24.848;2023-02-15T03:26:05;101175.00;;;2.91;65.98
41947;BME280;27638;42.184;24.848;2023-02-15T03:28:38;101171.59;;;3.06;65.53
41947;BME280;27638;42.184;24.848;2023-02-15T03:31:07;101173.94;;;3.12;64.91
41947;BME280;27638;42.184;24.848;2023-02-15T03:33:36;101175.16;;;3.05;65.54
41947;BME280;27638;42.184;24.848;2023-02-15T03:41:34;101180.84;;;3.31;64.94
41947;BME280;27638;42.184;24.848;2023-02-15T03:44:11;101186.66;;;3.36;64.97
41947;BME280;27638;42.184;24.848;2023-02-15T03:46:57;101188.88;;;2.93;66.47
41947;BME280;27638;42.184;24.848;2023-02-15T03:49:29;101189.69;;;3.11;65.85
41947;BME280;27638;42.184;24.848;2023-02-15T03:51:58;101182.63;;;2.96;66.21
41947;BME280;27638;42.184;24.848;2023-02-15T03:54:30;101189.25;;;3.03;66.75
41947;BME280;27638;42.184;24.848;2023-02-15T03:57:26;101180.22;;;3.26;65.80
41947;BME280;27638;42.184;24.848;2023-02-15T04:00:21;101186.59;;;3.37;65.14
41947;BME280;27638;42.184;24.848;2023-02-15T04:05:38;101193.31;;;3.74;63.72
41947;BME280;27638;42.184;24.848;2023-02-15T04:08:04;101190.03;;;3.71;63.54
41947;BME280;27638;42.184;24.848;2023-02-15T04:10:29;101189.59;;;3.78;63.60
41947;BME280;27638;42.184;24.848;2023-02-15T04:13:13;101192.81;;;3.99;62.47
41947;BME280;27638;42.184;24.848;2023-02-15T04:15:39;101192.50;;;4.21;61.85
41947;BME280;27638;42.184;24.848;2023-02-15T04:18:23;101198.69;;;4.20;61.26
41947;BME280;27638;42.184;24.848;2023-02-15T04:21:07;101191.50;;;4.24;61.18
41947;BME280;27638;42.184;24.848;2023-02-15T04:23:51;101196.53;;;4.11;61.56
41947;BME280;27638;42.184;24.848;2023-02-15T04:26:35;101197.00;;;4.19;60.98
41947;BME280;27638;42.184;24.848;2023-02-15T04:29:00;101204.56;;;4.08;60.97
41947;BME280;27638;42.184;24.848;2023-02-15T04:31:25;101212.09;;;4.14;61.11
41947;BME280;27638;42.184;24.848;2023-02-15T04:33:51;101214.72;;;4.14;60.54
41947;BME280;27638;42.184;24.848;2023-02-15T04:36:16;101208.38;;;3.87;61.58
41947;BME280;27638;42.184;24.848;2023-02-15T04:38:42;101206.50;;;3.89;61.34
41947;BME280;27638;42.184;24.848;2023-02-15T04:41:07;101211.00;;;4.02;60.82
41947;BME280;27638;42.184;24.848;2023-02-15T04:43:33;101213.03;;;4.13;60.20
41947;BME280;27638;42.184;24.848;2023-02-15T04:45:58;101216.84;;;4.23;59.66
41947;BME280;27638;42.184;24.848;2023-02-15T04:48:24;101225.31;;;4.28;59.41
41947;BME280;27638;42.184;24.848;2023-02-15T04:50:49;101235.53;;;4.33;59.08
41947;BME280;27638;42.184;24.848;2023-02-15T04:53:14;101221.84;;;4.28;58.74
41947;BME280;27638;42.184;24.848;2023-02-15T04:55:42;101232.91;;;4.01;59.89
41947;BME280;27638;42.184;24.848;2023-02-15T04:58:07;101231.47;;;3.96;60.05
41947;BME280;27638;42.184;24.848;2023-02-15T05:00:33;101239.31;;;3.96;59.88
41947;BME280;27638;42.184;24.848;2023-02-15T05:02:58;101243.13;;;4.06;59.83
41947;BME280;27638;42.184;24.848;2023-02-15T05:05:24;101246.03;;;4.17;59.53
41947;BME280;27638;42.184;24.848;2023-02-15T05:07:49;101247.22;;;4.27;59.10
41947;BME280;27638;42.184;24.848;2023-02-15T05:10:14;101243.59;;;4.30;58.87
41947;BME280;27638;42.184;24.848;2023-02-15T05:12:40;101252.63;;;4.24;58.43
41947;BME280;27638;42.184;24.848;2023-02-15T05:15:06;101264.06;;;4.23;58.86
41947;BME280;27638;42.184;24.848;2023-02-15T05:17:31;101262.63;;;4.18;58.83
41947;BME280;27638;42.184;24.848;2023-02-15T05:19:56;101260.41;;;4.26;58.66
41947;BME280;27638;42.184;24.848;2023-02-15T05:22:22;101268.97;;;4.29;58.35
41947;BME280;27638;42.184;24.848;2023-02-15T05:24:47;101272.34;;;4.31;58.12
41947;BME280;27638;42.184;24.848;2023-02-15T05:27:31;101269.81;;;4.30;57.98
41947;BME280;27638;42.184;24.848;2023-02-15T05:30:15;101272.94;;;4.21;58.07
41947;BME280;27638;42.184;24.848;2023-02-15T05:32:41;101273.31;;;4.13;58.45
41947;BME280;27638;42.184;24.848;2023-02-15T05:35:07;101278.47;;;4.14;58.61
41947;BME280;27638;42.184;24.848;2023-02-15T05:37:32;101269.84;;;3.97;58.62
41947;BME280;27638;42.184;24.848;2023-02-15T05:39:58;101287.34;;;3.96;59.64
41947;BME280;27638;42.184;24.848;2023-02-15T05:42:23;101278.38;;;4.00;59.29
41947;BME280;27638;42.184;24.848;2023-02-15T05:44:49;101298.00;;;3.93;59.63
41947;BME280;27638;42.184;24.848;2023-02-15T05:47:14;101295.84;;;3.84;59.97
41947;BME280;27638;42.184;24.848;2023-02-15T05:49:40;101301.69;;;3.89;60.10
41947;BME280;27638;42.184;24.848;2023-02-15T05:52:05;101303.16;;;4.10;59.33
41947;BME280;27638;42.184;24.848;2023-02-15T05:54:31;101303.75;;;4.15;59.26
41947;BME280;27638;42.184;24.848;2023-02-15T05:56:56;101315.91;;;4.01;60.07
41947;BME280;27638;42.184;24.848;2023-02-15T05:59:22;101316.28;;;4.10;59.63
41947;BME280;27638;42.184;24.848;2023-02-15T06:01:47;101327.94;;;4.05;60.44
41947;BME280;27638;42.184;24.848;2023-02-15T06:04:13;101319.56;;;3.98;60.21
41947;BME280;27638;42.184;24.848;2023-02-15T06:06:38;101320.50;;;4.13;59.82
41947;BME280;27638;42.184;24.848;2023-02-15T06:09:04;101322.66;;;4.22;60.09
41947;BME280;27638;42.184;24.848;2023-02-15T06:11:29;101323.00;;;4.32;59.65
41947;BME280;27638;42.184;24.848;2023-02-15T06:13:55;101327.50;;;4.45;59.84
41947;BME280;27638;42.184;24.848;2023-02-15T06:16:20;101327.00;;;4.55;59.11
41947;BME280;27638;42.184;24.848;2023-02-15T06:18:46;101323.53;;;4.54;59.36
41947;BME280;27638;42.184;24.848;2023-02-15T06:21:11;101324.28;;;4.56;59.18
41947;BME280;27638;42.184;24.848;2023-02-15T06:23:37;101323.53;;;4.54;59.41
41947;BME280;27638;42.184;24.848;2023-02-15T06:26:03;101327.00;;;4.39;59.63
41947;BME280;27638;42.184;24.848;2023-02-15T06:28:28;101328.69;;;4.40;59.81
41947;BME280;27638;42.184;24.848;2023-02-15T06:30:53;101321.41;;;4.45;59.93
41947;BME280;27638;42.184;24.848;2023-02-15T06:33:19;101327.66;;;4.74;59.70
41947;BME280;27638;42.184;24.848;2023-02-15T06:35:44;101331.47;;;5.14;59.73
41947;BME280;27638;42.184;24.848;2023-02-15T06:38:10;101334.50;;;5.38;58.64
41947;BME280;27638;42.184;24.848;2023-02-15T06:40:36;101327.97;;;5.59;58.17
41947;BME280;27638;42.184;24.848;2023-02-15T06:43:01;101331.47;;;5.88;57.86
41947;BME280;27638;42.184;24.848;2023-02-15T06:45:27;101332.34;;;6.17;57.05
41947;BME280;27638;42.184;24.848;2023-02-15T06:47:52;101322.19;;;6.39;56.38
41947;BME280;27638;42.184;24.848;2023-02-15T06:50:18;101329.56;;;6.61;56.07
41947;BME280;27638;42.184;24.848;2023-02-15T06:52:43;101336.13;;;6.68;56.08
41947;BME280;27638;42.184;24.848;2023-02-15T06:55:08;101335.13;;;6.57;56.24
41947;BME280;27638;42.184;24.848;2023-02-15T06:57:34;101335.56;;;6.63;56.16
41947;BME280;27638;42.184;24.848;2023-02-15T06:59:59;101329.97;;;6.55;56.17
41947;BME280;27638;42.184;24.848;2023-02-15T07:02:25;101325.84;;;6.37;56.62
41947;BME280;27638;42.184;24.848;2023-02-15T07:04:50;101323.41;;;6.20;57.73
41947;BME280;27638;42.184;24.848;2023-02-15T07:07:16;101320.88;;;6.04;59.08
41947;BME280;27638;42.184;24.848;2023-02-15T07:09:41;101321.50;;;5.79;60.24
41947;BME280;27638;42.184;24.848;2023-02-15T07:12:07;101318.69;;;5.82;59.96
41947;BME280;27638;42.184;24.848;2023-02-15T07:14:51;101310.75;;;5.98;60.63
41947;BME280;27638;42.184;24.848;2023-02-15T07:17:17;101312.31;;;6.15;59.74
41947;BME280;27638;42.184;24.848;2023-02-15T07:19:43;101321.53;;;6.36;59.88
41947;BME280;27638;42.184;24.848;2023-02-15T07:22:08;101317.44;;;6.59;58.82
41947;BME280;27638;42.184;24.848;2023-02-15T07:24:33;101318.03;;;6.77;59.14
41947;BME280;27638;42.184;24.848;2023-02-15T07:26:59;101310.59;;;6.83;58.47
41947;BME280;27638;42.184;24.848;2023-02-15T07:29:25;101313.72;;;7.02;58.64
41947;BME280;27638;42.184;24.848;2023-02-15T07:31:50;101312.38;;;7.10;58.62
41947;BME280;27638;42.184;24.848;2023-02-15T07:34:15;101311.44;;;7.23;58.95
41947;BME280;27638;42.184;24.848;2023-02-15T07:36:41;101306.53;;;7.31;58.65
41947;BME280;27638;42.184;24.848;2023-02-15T07:39:07;101310.56;;;7.37;58.45
41947;BME280;27638;42.184;24.848;2023-02-15T07:41:33;101318.47;;;7.37;58.57
41947;BME280;27638;42.184;24.848;2023-02-15T07:43:58;101322.25;;;7.46;58.19
41947;BME280;27638;42.184;24.848;2023-02-15T07:46:24;101323.63;;;7.51;58.10
41947;BME280;27638;42.184;24.848;2023-02-15T07:48:49;101315.50;;;7.42;58.58
41947;BME280;27638;42.184;24.848;2023-02-15T07:51:15;101314.25;;;7.47;58.17
41947;BME280;27638;42.184;24.848;2023-02-15T07:53:42;101311.84;;;7.69;58.40
41947;BME280;27638;42.184;24.848;2023-02-15T07:56:12;101318.16;;;7.54;57.74
41947;BME280;27638;42.184;24.848;2023-02-15T07:58:38;101323.34;;;7.68;57.29
41947;BME280;27638;42.184;24.848;2023-02-15T08:01:35;101319.75;;;7.95;57.89
41947;BME280;27638;42.184;24.848;2023-02-15T08:04:02;101314.66;;;8.17;56.75
41947;BME280;27638;42.184;24.848;2023-02-15T08:06:31;101314.44;;;8.20;56.99
41947;BME280;27638;42.184;24.848;2023-02-15T08:08:57;101315.06;;;8.24;56.97
41947;BME280;27638;42.184;24.848;2023-02-15T08:11:24;101308.03;;;8.61;55.97
41947;BME280;27638;42.184;24.848;2023-02-15T08:19:12;101299.66;;;8.67;55.92
41947;BME280;27638;42.184;24.848;2023-02-15T08:21:40;101309.22;;;8.57;55.87
41947;BME280;27638;42.184;24.848;2023-02-15T08:24:07;101316.25;;;8.69;55.20
41947;BME280;27638;42.184;24.848;2023-02-15T08:26:33;101308.72;;;8.76;55.99
41947;BME280;27638;42.184;24.848;2023-02-15T08:28:59;101309.06;;;8.95;55.37
41947;BME280;27638;42.184;24.848;2023-02-15T08:31:25;101310.16;;;9.04;55.67
41947;BME280;27638;42.184;24.848;2023-02-15T08:33:53;101308.88;;;8.85;53.09
41947;BME280;27638;42.184;24.848;2023-02-15T08:36:21;101310.16;;;9.04;52.34
41947;BME280;27638;42.184;24.848;2023-02-15T08:38:47;101305.03;;;9.13;51.34
41947;BME280;27638;42.184;24.848;2023-02-15T08:43:38;101305.94;;;9.36;50.27
41947;BME280;27638;42.184;24.848;2023-02-15T08:46:05;101293.59;;;9.37;50.04
41947;BME280;27638;42.184;24.848;2023-02-15T08:48:31;101308.44;;;9.26;50.49
41947;BME280;27638;42.184;24.848;2023-02-15T08:50:57;101308.28;;;9.17;50.33
41947;BME280;27638;42.184;24.848;2023-02-15T08:53:22;101305.03;;;9.37;50.54
41947;BME280;27638;42.184;24.848;2023-02-15T08:55:58;101306.13;;;9.46;49.78
41947;BME280;27638;42.184;24.848;2023-02-15T08:58:24;101314.78;;;9.48;49.94
41947;BME280;27638;42.184;24.848;2023-02-15T09:00:50;101315.41;;;9.63;49.69
41947;BME280;27638;42.184;24.848;2023-02-15T09:03:16;101308.19;;;9.53;49.02
41947;BME280;27638;42.184;24.848;2023-02-15T09:05:41;101317.06;;;9.52;49.77
41947;BME280;27638;42.184;24.848;2023-02-15T09:08:07;101308.81;;;9.79;49.77
41947;BME280;27638;42.184;24.848;2023-02-15T09:10:32;101304.03;;;9.84;49.27
41947;BME280;27638;42.184;24.848;2023-02-15T09:12:58;101309.06;;;9.99;48.98
41947;BME280;27638;42.184;24.848;2023-02-15T09:15:23;101302.34;;;10.06;47.92
41947;BME280;27638;42.184;24.848;2023-02-15T09:17:48;101297.03;;;9.83;48.28
41947;BME280;27638;42.184;24.848;2023-02-15T09:20:14;101305.09;;;9.93;48.79
41947;BME280;27638;42.184;24.848;2023-02-15T09:22:39;101293.78;;;9.91;47.34
41947;BME280;27638;42.184;24.848;2023-02-15T09:25:05;101289.22;;;9.93;47.58
41947;BME280;27638;42.184;24.848;2023-02-15T09:27:30;101286.09;;;9.99;48.08
41947;BME280;27638;42.184;24.848;2023-02-15T09:29:56;101294.25;;;10.18;48.67
41947;BME280;27638;42.184;24.848;2023-02-15T09:32:21;101290.66;;;10.19;47.15
41947;BME280;27638;42.184;24.848;2023-02-15T09:34:47;101285.34;;;10.19;46.88
41947;BME280;27638;42.184;24.848;2023-02-15T09:37:13;101290.19;;;10.26;47.20
41947;BME280;27638;42.184;24.848;2023-02-15T09:39:41;101285.03;;;10.24;46.79
41947;BME280;27638;42.184;24.848;2023-02-15T09:58:53;101276.94;;;10.37;46.09
41947;BME280;27638;42.184;24.848;2023-02-15T10:06:43;101263.34;;;10.52;46.14
41947;BME280;27638;42.184;24.848;2023-02-15T10:25:55;101238.06;;;10.48;45.19
41947;BME280;27638;42.184;24.848;2023-02-15T10:28:37;101235.59;;;10.68;44.95
41947;BME280;27638;42.184;24.848;2023-02-15T10:33:42;101230.84;;;10.82;44.29
41947;BME280;27638;42.184;24.848;2023-02-15T10:36:29;101223.66;;;10.73;45.47
41947;BME280;27638;42.184;24.848;2023-02-15T10:50:27;101215.25;;;10.68;44.43
41947;BME280;27638;42.184;24.848;2023-02-15T10:53:07;101211.38;;;10.72;43.99
41947;BME280;27638;42.184;24.848;2023-02-15T10:55:50;101206.72;;;10.65;45.90
41947;BME280;27638;42.184;24.848;2023-02-15T10:58:36;101195.78;;;10.58;45.27
41947;BME280;27638;42.184;24.848;2023-02-15T11:01:25;101201.47;;;10.74;44.39
41947;BME280;27638;42.184;24.848;2023-02-15T11:06:31;101193.78;;;10.71;45.05
41947;BME280;27638;42.184;24.848;2023-02-15T11:09:08;101188.69;;;10.79;44.95
41947;BME280;27638;42.184;24.848;2023-02-15T11:11:39;101185.66;;;10.84;45.17
41947;BME280;27638;42.184;24.848;2023-02-15T11:14:20;101180.09;;;10.87;44.90
41947;BME280;27638;42.184;24.848;2023-02-15T11:16:51;101180.94;;;10.87;45.11
41947;BME280;27638;42.184;24.848;2023-02-15T11:21:53;101178.56;;;10.84;44.57
41947;BME280;27638;42.184;24.848;2023-02-15T11:24:21;101175.06;;;10.84;44.88
41947;BME280;27638;42.184;24.848;2023-02-15T11:29:31;101161.28;;;10.90;44.57
41947;BME280;27638;42.184;24.848;2023-02-15T11:32:11;101165.03;;;10.87;44.60
41947;BME280;27638;42.184;24.848;2023-02-15T11:34:48;101156.78;;;10.81;44.16
41947;BME280;27638;42.184;24.848;2023-02-15T11:37:19;101150.94;;;10.66;45.05
41947;BME280;27638;42.184;24.848;2023-02-15T11:39:49;101143.72;;;10.68;45.25
41947;BME280;27638;42.184;24.848;2023-02-15T11:42:20;101149.47;;;10.73;45.55
41947;BME280;27638;42.184;24.848;2023-02-15T11:47:44;101138.53;;;10.87;45.23
41947;BME280;27638;42.184;24.848;2023-02-15T11:50:19;101145.34;;;10.80;43.19
41947;BME280;27638;42.184;24.848;2023-02-15T11:52:48;101139.19;;;10.80;43.41
41947;BME280;27638;42.184;24.848;2023-02-15T11:55:19;101137.84;;;10.85;43.92
41947;BME280;27638;42.184;24.848;2023-02-15T11:57:54;101133.31;;;10.76;44.07
41947;BME280;27638;42.184;24.848;2023-02-15T12:00:34;101127.88;;;10.78;44.09
41947;BME280;27638;42.184;24.848;2023-02-15T12:03:06;101124.19;;;10.90;43.44
41947;BME280;27638;42.184;24.848;2023-02-15T12:05:34;101123.28;;;11.01;43.09
41947;BME280;27638;42.184;24.848;2023-02-15T12:08:05;101123.41;;;10.99;43.76
41947;BME280;27638;42.184;24.848;2023-02-15T12:10:40;101122.97;;;10.94;43.60
41947;BME280;27638;42.184;24.848;2023-02-15T12:13:09;101122.19;;;11.03;43.24
41947;BME280;27638;42.184;24.848;2023-02-15T12:15:34;101125.41;;;11.07;42.29
41947;BME280;27638;42.184;24.848;2023-02-15T12:18:00;101115.50;;;11.09;42.00
41947;BME280;27638;42.184;24.848;2023-02-15T12:20:31;101115.81;;;11.15;40.67
41947;BME280;27638;42.184;24.848;2023-02-15T12:23:03;101111.09;;;11.19;41.39
41947;BME280;27638;42.184;24.848;2023-02-15T12:25:36;101117.69;;;11.25;42.42
41947;BME280;27638;42.184;24.848;2023-02-15T12:28:03;101108.16;;;11.22;42.16
41947;BME280;27638;42.184;24.848;2023-02-15T12:30:35;101110.81;;;11.22;41.12
41947;BME280;27638;42.184;24.848;2023-02-15T12:33:41;101119.56;;;11.13;42.02
41947;BME280;27638;42.184;24.848;2023-02-15T12:38:36;101109.97;;;11.22;41.91
41947;BME280;27638;42.184;24.848;2023-02-15T12:41:04;101105.56;;;11.32;41.09
41947;BME280;27638;42.184;24.848;2023-02-15T12:43:35;101102.38;;;11.38;40.82
41947;BME280;27638;42.184;24.848;2023-02-15T12:46:25;101102.63;;;11.35;41.50
41947;BME280;27638;42.184;24.848;2023-02-15T12:51:52;101097.34;;;11.35;41.21
41947;BME280;27638;42.184;24.848;2023-02-15T12:56:50;101092.59;;;11.38;40.33
41947;BME280;27638;42.184;24.848;2023-02-15T12:59:21;101099.56;;;11.30;40.29
41947;BME280;27638;42.184;24.848;2023-02-15T13:01:48;101091.16;;;11.25;38.37
41947;BME280;27638;42.184;24.848;2023-02-15T13:04:25;101093.84;;;11.34;37.95
41947;BME280;27638;42.184;24.848;2023-02-15T13:07:02;101098.84;;;11.28;40.04
41947;BME280;27638;42.184;24.848;2023-02-15T13:11:57;101091.59;;;11.30;40.78
41947;BME280;27638;42.184;24.848;2023-02-15T13:14:34;101090.28;;;11.45;39.61
41947;BME280;27638;42.184;24.848;2023-02-15T13:17:03;101089.34;;;11.56;40.24
41947;BME280;27638;42.184;24.848;2023-02-15T13:19:50;101089.63;;;11.62;40.38
41947;BME280;27638;42.184;24.848;2023-02-15T13:22:21;101091.03;;;11.66;39.44
41947;BME280;27638;42.184;24.848;2023-02-15T13:24:57;101082.91;;;11.58;38.74
41947;BME280;27638;42.184;24.848;2023-02-15T13:27:32;101075.78;;;11.49;39.11
41947;BME280;27638;42.184;24.848;2023-02-15T13:30:02;101076.50;;;11.61;39.58
41947;BME280;27638;42.184;24.848;2023-02-15T13:32:30;101076.91;;;11.56;38.80
41947;BME280;27638;42.184;24.848;2023-02-15T13:34:58;101079.03;;;11.62;39.30
41947;BME280;27638;42.184;24.848;2023-02-15T13:38:06;101076.09;;;11.65;39.16
41947;BME280;27638;42.184;24.848;2023-02-15T13:40:48;101076.78;;;11.67;38.22
41947;BME280;27638;42.184;24.848;2023-02-15T13:48:41;101068.84;;;11.67;38.35
41947;BME280;27638;42.184;24.848;2023-02-15T13:51:32;101072.75;;;11.73;37.41
41947;BME280;27638;42.184;24.848;2023-02-15T13:59:48;101060.03;;;11.67;37.88
41947;BME280;27638;42.184;24.848;2023-02-15T14:17:08;101073.31;;;11.76;35.98
41947;BME280;27638;42.184;24.848;2023-02-15T14:20:02;101074.16;;;11.77;36.47
41947;BME280;27638;42.184;24.848;2023-02-15T14:22:41;101064.41;;;11.77;35.97
41947;BME280;27638;42.184;24.848;2023-02-15T14:30:26;101069.28;;;11.72;36.19
41947;BME280;27638;42.184;24.848;2023-02-15T14:32:57;101063.44;;;11.78;36.29
41947;BME280;27638;42.184;24.848;2023-02-15T14:35:27;101058.00;;;11.80;36.85
41947;BME280;27638;42.184;24.848;2023-02-15T14:49:11;101069.44;;;11.80;36.46
41947;BME280;27638;42.184;24.848;2023-02-15T14:59:37;101072.03;;;11.61;36.17
41947;BME280;27638;42.184;24.848;2023-02-15T15:04:43;101068.53;;;11.51;37.02
41947;BME280;27638;42.184;24.848;2023-02-15T15:07:25;101069.81;;;11.66;37.32
41947;BME280;27638;42.184;24.848;2023-02-15T15:12:46;101065.78;;;11.72;36.79
41947;BME280;27638;42.184;24.848;2023-02-15T15:15:34;101061.72;;;11.68;37.37
41947;BME280;27638;42.184;24.848;2023-02-15T15:18:09;101067.44;;;11.63;38.00
41947;BME280;27638;42.184;24.848;2023-02-15T15:20:39;101080.25;;;11.48;38.79
41947;BME280;27638;42.184;24.848;2023-02-15T15:28:08;101074.56;;;11.63;38.43
41947;BME280;27638;42.184;24.848;2023-02-15T15:47:17;101089.25;;;11.36;38.42
41947;BME280;27638;42.184;24.848;2023-02-15T15:49:47;101095.22;;;11.29;38.31
41947;BME280;27638;42.184;24.848;2023-02-15T15:52:16;101095.31;;;11.17;39.00
41947;BME280;27638;42.184;24.848;2023-02-15T15:54:43;101098.66;;;11.19;38.23
41947;BME280;27638;42.184;24.848;2023-02-15T15:59:56;101110.97;;;11.20;39.40
41947;BME280;27638;42.184;24.848;2023-02-15T16:02:23;101101.91;;;11.23;38.88
41947;BME280;27638;42.184;24.848;2023-02-15T16:04:49;101113.59;;;11.20;38.43
41947;BME280;27638;42.184;24.848;2023-02-15T16:09:57;101116.00;;;11.24;39.40
41947;BME280;27638;42.184;24.848;2023-02-15T16:12:25;101118.34;;;11.17;39.24
41947;BME280;27638;42.184;24.848;2023-02-15T16:14:51;101119.22;;;10.97;40.16
41947;BME280;27638;42.184;24.848;2023-02-15T16:17:29;101112.69;;;11.01;40.16
41947;BME280;27638;42.184;24.848;2023-02-15T16:20:19;101118.28;;;11.07;39.83
41947;BME280;27638;42.184;24.848;2023-02-15T16:22:49;101109.63;;;11.05;39.41